Time;durP1;ratioP1;P1;durP2;ratioP2;P2;SDS_P1;SDS_P2;PMS_P1;PMS_P2;Temp;Humidity;BMP_temperature;BMP_pressure;BME280_temperature;BME280_humidity;BME280_pressure;Samples;Min_cycle;Max_cycle;Signal;HPM_P1;HPM_P2
2021/08/16 00:00:19;;;;;;;3.00;2.33;;;;;;;17.71;100.00;99545.97;5072354;28;20261;-70
2021/08/16 00:02:45;;;;;;;2.33;1.80;;;;;;;17.64;100.00;99550.59;5072374;28;20257;-71
2021/08/16 00:05:14;;;;;;;1.70;1.60;;;;;;;17.58;100.00;99561.19;5072034;28;20309;-70
2021/08/16 00:07:39;;;;;;;3.33;2.43;;;;;;;17.47;100.00;99546.50;5072305;28;20177;-70
2021/08/16 00:10:05;;;;;;;3.13;1.80;;;;;;;17.49;100.00;99544.13;5072584;28;20174;-71
2021/08/16 00:12:31;;;;;;;3.73;2.40;;;;;;;17.57;100.00;99534.75;5071932;28;20254;-71
2021/08/16 00:14:56;;;;;;;2.93;2.40;;;;;;;17.70;100.00;99527.81;5072062;28;20662;-71
2021/08/16 00:17:22;;;;;;;4.47;1.40;;;;;;;17.82;100.00;99527.50;5072010;28;20189;-71
2021/08/16 00:19:47;;;;;;;2.30;1.80;;;;;;;17.86;100.00;99516.50;5072124;28;20186;-71
2021/08/16 00:22:12;;;;;;;1.90;1.70;;;;;;;17.85;100.00;99520.44;5071760;28;20228;-71
2021/08/16 00:24:38;;;;;;;3.23;2.37;;;;;;;17.66;100.00;99526.16;5071933;28;20178;-70
2021/08/16 00:27:03;;;;;;;1.87;1.63;;;;;;;17.42;100.00;99519.22;5071952;28;20547;-71
2021/08/16 00:29:28;;;;;;;6.23;1.67;;;;;;;17.24;100.00;99513.53;5072179;28;20181;-70
2021/08/16 00:31:54;;;;;;;1.70;1.57;;;;;;;17.21;100.00;99515.09;5071456;28;20205;-71
2021/08/16 00:34:19;;;;;;;2.90;1.50;;;;;;;17.18;100.00;99501.22;5071545;28;20293;-70
2021/08/16 00:36:45;;;;;;;2.20;1.83;;;;;;;17.11;100.00;99490.94;5071670;28;20171;-70
2021/08/16 00:39:10;;;;;;;3.77;1.70;;;;;;;16.98;100.00;99488.81;5071607;28;20174;-71
2021/08/16 00:41:37;;;;;;;5.30;1.70;;;;;;;16.89;100.00;99486.34;5071253;28;20174;-71
2021/08/16 00:44:07;;;;;;;2.97;2.03;;;;;;;16.81;100.00;99490.19;5071755;28;20588;-71
2021/08/16 00:46:33;;;;;;;3.83;1.87;;;;;;;16.76;100.00;99491.31;5071382;28;20174;-70
2021/08/16 00:48:58;;;;;;;2.53;1.87;;;;;;;16.75;100.00;99488.94;5071488;28;20181;-70
2021/08/16 00:51:25;;;;;;;2.27;1.97;;;;;;;16.77;100.00;99520.47;5069734;28;20170;-71
2021/08/16 00:53:51;;;;;;;2.53;2.00;;;;;;;16.86;100.00;99517.44;5071400;28;20171;-71
2021/08/16 00:56:17;;;;;;;2.23;1.97;;;;;;;16.98;100.00;99514.44;5071336;28;20271;-71
2021/08/16 00:58:43;;;;;;;1.90;1.80;;;;;;;17.06;100.00;99496.78;5071215;28;20209;-70
2021/08/16 01:01:09;;;;;;;1.93;1.70;;;;;;;17.15;100.00;99483.47;5071055;28;20175;-71
2021/08/16 01:03:34;;;;;;;3.67;1.77;;;;;;;17.22;100.00;99486.31;5070877;28;20389;-70
2021/08/16 01:05:59;;;;;;;2.50;1.87;;;;;;;17.25;100.00;99488.31;5071062;28;20179;-71
2021/08/16 01:08:26;;;;;;;1.90;1.70;;;;;;;17.24;100.00;99489.47;5071062;28;20223;-70
2021/08/16 01:10:52;;;;;;;1.90;1.70;;;;;;;17.23;100.00;99501.69;5070968;28;20228;-70
2021/08/16 01:13:19;;;;;;;2.90;1.80;;;;;;;17.25;100.00;99493.81;5071097;28;20176;-70
2021/08/16 01:15:58;;;;;;;2.43;1.97;;;;;;;17.30;100.00;99491.88;5070733;28;20202;-70
2021/08/16 01:18:25;;;;;;;4.87;2.60;;;;;;;17.31;100.00;99501.75;5070811;28;20181;-70
2021/08/16 01:20:53;;;;;;;11.30;1.63;;;;;;;17.31;100.00;99518.31;5070751;28;20732;-70
2021/08/16 01:23:18;;;;;;;5.67;1.70;;;;;;;17.36;100.00;99529.00;5070553;28;20634;-71
2021/08/16 01:25:46;;;;;;;2.50;1.77;;;;;;;17.31;100.00;99519.13;5070774;28;20174;-70
2021/08/16 01:28:12;;;;;;;2.20;2.00;;;;;;;17.25;100.00;99523.41;5070578;28;20179;-70
2021/08/16 01:30:38;;;;;;;2.63;2.10;;;;;;;17.19;100.00;99524.91;5070647;28;20170;-71
2021/08/16 01:33:03;;;;;;;2.93;2.00;;;;;;;17.06;100.00;99538.16;5070778;28;20422;-71
2021/08/16 01:35:28;;;;;;;2.13;1.70;;;;;;;16.97;100.00;99558.97;5070577;28;20232;-71
2021/08/16 01:37:54;;;;;;;6.80;2.33;;;;;;;16.74;100.00;99557.09;5069473;28;20587;-71
2021/08/16 01:40:19;;;;;;;1.77;1.67;;;;;;;16.69;100.00;99586.97;5067950;28;20182;-71
2021/08/16 01:42:44;;;;;;;2.60;2.20;;;;;;;16.61;100.00;99570.28;5070736;28;20194;-70
2021/08/16 01:45:10;;;;;;;6.07;2.50;;;;;;;16.59;100.00;99575.38;5070983;28;20188;-71
2021/08/16 01:47:35;;;;;;;2.20;2.00;;;;;;;16.56;100.00;99564.31;5070870;28;20170;-71
2021/08/16 01:50:01;;;;;;;2.20;1.83;;;;;;;16.51;100.00;99603.25;5070934;28;20626;-71
2021/08/16 01:52:26;;;;;;;2.87;2.27;;;;;;;16.40;100.00;99536.91;5070640;28;20189;-71
2021/08/16 01:54:52;;;;;;;3.47;2.40;;;;;;;16.38;100.00;99547.53;5070800;28;20210;-71
2021/08/16 01:57:17;;;;;;;2.00;1.60;;;;;;;16.37;100.00;99545.94;5070841;28;20189;-71
2021/08/16 01:59:42;;;;;;;2.77;2.30;;;;;;;16.44;100.00;99543.28;5070717;28;20174;-71
2021/08/16 02:02:08;;;;;;;3.00;2.03;;;;;;;16.57;100.00;99566.69;5070688;28;20170;-70
2021/08/16 02:04:33;;;;;;;3.90;1.93;;;;;;;16.70;100.00;99578.34;5070656;28;20650;-71
2021/08/16 02:06:59;;;;;;;2.77;2.57;;;;;;;16.81;100.00;99584.78;5070777;28;20175;-71
2021/08/16 02:09:24;;;;;;;2.97;2.13;;;;;;;16.92;100.00;99594.00;5070674;28;20175;-71
2021/08/16 02:11:50;;;;;;;1.90;1.40;;;;;;;17.02;100.00;99597.25;5070606;28;20638;-71
2021/08/16 02:14:15;;;;;;;2.63;2.27;;;;;;;17.09;100.00;99605.66;5070536;28;20224;-71
2021/08/16 02:16:40;;;;;;;2.03;1.73;;;;;;;17.14;100.00;99597.03;5070655;28;20626;-73
2021/08/16 02:19:06;;;;;;;24.17;1.50;;;;;;;17.18;100.00;99561.97;5070648;28;20179;-73
2021/08/16 02:21:31;;;;;;;2.80;1.90;;;;;;;17.14;100.00;99567.44;5070480;28;20179;-70
2021/08/16 02:23:56;;;;;;;2.87;2.43;;;;;;;17.09;100.00;99559.50;5069318;28;20241;-71
2021/08/16 02:26:22;;;;;;;2.77;1.70;;;;;;;17.05;100.00;99560.63;5070596;28;20189;-71
2021/08/16 02:28:47;;;;;;;2.57;2.33;;;;;;;17.00;100.00;99547.97;5070473;28;20646;-71
2021/08/16 02:31:12;;;;;;;2.03;1.90;;;;;;;16.99;100.00;99573.97;5070415;28;20206;-71
2021/08/16 02:33:38;;;;;;;2.60;1.73;;;;;;;16.97;100.00;99581.84;5070462;28;20178;-70
2021/08/16 02:36:03;;;;;;;3.13;2.30;;;;;;;16.97;100.00;99572.75;5070368;28;20262;-70
2021/08/16 02:38:28;;;;;;;2.80;2.13;;;;;;;16.97;100.00;99554.25;5070520;28;20241;-71
2021/08/16 02:40:54;;;;;;;4.77;2.03;;;;;;;16.96;100.00;99563.69;5070449;28;20179;-71
2021/08/16 02:43:19;;;;;;;2.33;2.13;;;;;;;16.97;100.00;99557.00;5070333;28;20182;-71
2021/08/16 02:45:44;;;;;;;2.63;2.43;;;;;;;16.99;100.00;99545.59;5070733;28;20276;-71
2021/08/16 02:48:10;;;;;;;2.30;2.10;;;;;;;17.00;100.00;99564.53;5070392;28;20181;-71
2021/08/16 02:50:35;;;;;;;4.03;2.90;;;;;;;17.02;100.00;99575.19;5074211;28;20185;-71
2021/08/16 02:53:00;;;;;;;3.27;2.40;;;;;;;17.01;100.00;99577.16;5074065;28;20301;-71
2021/08/16 02:55:26;;;;;;;2.00;1.80;;;;;;;17.00;100.00;99574.75;5074273;28;20742;-71
2021/08/16 02:57:51;;;;;;;1.63;1.10;;;;;;;16.99;100.00;99573.97;5072805;28;20182;-70
2021/08/16 03:00:16;;;;;;;2.10;1.60;;;;;;;17.00;100.00;99572.00;5074027;28;20268;-71
2021/08/16 03:02:43;;;;;;;2.47;2.20;;;;;;;17.02;100.00;99573.22;5073764;28;20185;-71
2021/08/16 03:05:10;;;;;;;1.57;1.47;;;;;;;17.02;100.00;99575.97;5074308;28;20171;-71
2021/08/16 03:07:35;;;;;;;6.63;2.60;;;;;;;17.03;100.00;99576.78;5073793;28;20223;-71
2021/08/16 03:10:01;;;;;;;3.77;1.67;;;;;;;17.01;100.00;99574.38;5074199;28;20642;-71
2021/08/16 03:12:26;;;;;;;1.83;1.70;;;;;;;17.00;100.00;99583.03;5073598;28;20199;-71
2021/08/16 03:14:51;;;;;;;0.77;0.77;;;;;;;17.02;100.00;99566.91;5073735;28;20255;-71
2021/08/16 03:17:16;;;;;;;4.43;1.97;;;;;;;16.99;100.00;99573.19;5073681;28;20187;-71
2021/08/16 03:19:42;;;;;;;3.37;1.73;;;;;;;16.96;100.00;99580.25;5073703;28;20584;-71
2021/08/16 03:22:07;;;;;;;1.47;1.27;;;;;;;16.91;100.00;99580.56;5073427;28;20193;-70
2021/08/16 03:24:32;;;;;;;2.43;1.60;;;;;;;16.90;100.00;99590.00;5073450;28;20646;-71
2021/08/16 03:26:59;;;;;;;2.80;1.47;;;;;;;16.85;100.00;99573.78;5073941;28;20181;-71
2021/08/16 03:29:24;;;;;;;2.73;1.87;;;;;;;16.86;100.00;99565.13;5073710;28;20193;-71
2021/08/16 03:31:50;;;;;;;2.10;1.83;;;;;;;16.84;100.00;99553.69;5073194;28;20666;-71
2021/08/16 03:34:15;;;;;;;2.00;1.80;;;;;;;16.90;100.00;99557.69;5073320;28;20206;-71
2021/08/16 03:36:41;;;;;;;1.70;1.60;;;;;;;16.90;100.00;99565.19;5073437;28;20528;-71
2021/08/16 03:39:06;;;;;;;2.00;1.90;;;;;;;16.87;100.00;99563.19;5073281;28;20213;-70
2021/08/16 03:41:32;;;;;;;2.90;2.10;;;;;;;16.86;100.00;99564.34;5073141;28;20288;-71
2021/08/16 03:43:57;;;;;;;3.30;2.67;;;;;;;16.86;100.00;99564.34;5073521;28;20262;-71
2021/08/16 03:46:22;;;;;;;3.07;2.47;;;;;;;16.84;100.00;99561.16;5073223;28;20206;-71
2021/08/16 03:48:48;;;;;;;2.43;2.23;;;;;;;16.84;100.00;99563.94;5073154;28;20179;-71
2021/08/16 03:51:14;;;;;;;2.77;2.57;;;;;;;16.79;100.00;99561.50;5073258;28;20174;-71
2021/08/16 03:53:39;;;;;;;2.20;2.07;;;;;;;16.72;100.00;99542.09;5073136;28;20189;-70
2021/08/16 03:56:06;;;;;;;2.97;2.67;;;;;;;16.66;100.00;99547.91;5072939;28;20562;-73
2021/08/16 03:58:31;;;;;;;3.40;3.10;;;;;;;16.55;100.00;99551.69;5072911;28;20166;-73
2021/08/16 04:00:57;;;;;;;4.13;3.80;;;;;;;16.49;100.00;99565.03;5072400;28;20181;-73
2021/08/16 04:03:22;;;;;;;3.50;3.20;;;;;;;16.41;100.00;99557.81;5072631;28;20194;-73
2021/08/16 04:05:48;;;;;;;3.63;3.23;;;;;;;16.36;100.00;99547.09;5072846;28;20541;-73
2021/08/16 04:08:13;;;;;;;3.57;3.13;;;;;;;16.30;100.00;99557.66;5072826;28;20537;-73
2021/08/16 04:10:38;;;;;;;3.50;3.30;;;;;;;16.30;100.00;99562.38;5072605;28;20232;-73
2021/08/16 04:13:04;;;;;;;3.93;3.53;;;;;;;16.30;100.00;99565.13;5072864;28;20171;-73
2021/08/16 04:15:29;;;;;;;3.90;3.60;;;;;;;16.26;100.00;99567.03;5072723;28;20206;-73
2021/08/16 04:17:55;;;;;;;4.33;3.33;;;;;;;16.27;100.00;99561.16;5072600;28;20669;-73
2021/08/16 04:20:21;;;;;;;4.17;3.77;;;;;;;16.28;100.00;99564.69;5072545;28;20171;-71
2021/08/16 04:22:46;;;;;;;4.57;3.30;;;;;;;16.26;100.00;99551.28;5072374;28;20257;-71
2021/08/16 04:25:14;;;;;;;4.63;4.23;;;;;;;16.23;100.00;99571.34;5071953;28;20257;-71
2021/08/16 04:27:41;;;;;;;4.33;3.97;;;;;;;16.21;100.00;99554.38;5071839;28;20258;-71
2021/08/16 04:30:07;;;;;;;4.43;4.03;;;;;;;16.18;100.00;99546.03;5071673;28;20175;-71
2021/08/16 04:32:33;;;;;;;4.80;3.83;;;;;;;16.17;100.00;99538.94;5071631;28;20179;-71
2021/08/16 04:34:58;;;;;;;3.47;3.27;;;;;;;16.16;100.00;99537.34;5071882;28;20201;-71
2021/08/16 04:37:23;;;;;;;4.30;4.00;;;;;;;16.14;100.00;99529.44;5071834;28;20234;-71
2021/08/16 04:39:49;;;;;;;3.90;3.60;;;;;;;16.11;100.00;99529.41;5071700;28;20661;-71
2021/08/16 04:42:15;;;;;;;4.73;4.27;;;;;;;16.10;100.00;99536.09;5071910;28;20178;-71
2021/08/16 04:44:40;;;;;;;4.43;4.03;;;;;;;16.10;100.00;99533.34;5071645;28;20171;-71
2021/08/16 04:47:05;;;;;;;4.13;3.73;;;;;;;16.04;100.00;99530.88;5070508;28;20210;-71
2021/08/16 04:49:31;;;;;;;3.87;3.53;;;;;;;16.05;100.00;99520.66;5071613;28;20171;-71
2021/08/16 04:51:56;;;;;;;4.97;4.47;;;;;;;16.05;100.00;99526.94;5071334;28;20448;-71
2021/08/16 04:54:21;;;;;;;3.90;3.20;;;;;;;16.12;100.00;99531.78;5071276;28;20204;-71
2021/08/16 04:56:47;;;;;;;3.83;3.53;;;;;;;16.18;100.00;99541.31;5071554;28;20560;-71
2021/08/16 04:59:12;;;;;;;5.93;4.43;;;;;;;16.24;100.00;99548.13;5071519;28;20183;-71
2021/08/16 05:01:38;;;;;;;4.20;3.90;;;;;;;16.25;100.00;99541.44;5071179;28;20162;-71
2021/08/16 05:04:04;;;;;;;6.83;3.70;;;;;;;16.28;100.00;99548.97;5071219;28;20190;-71
2021/08/16 05:06:32;;;;;;;1.50;1.13;;;;;;;16.30;100.00;99545.81;5071537;28;20208;-73
2021/08/16 05:09:00;;;;;;;3.07;2.87;;;;;;;16.30;100.00;99543.84;5069721;28;20726;-73
2021/08/16 05:11:26;;;;;;;5.73;3.43;;;;;;;16.35;100.00;99556.56;5070043;28;20196;-72
2021/08/16 05:13:52;;;;;;;4.57;2.70;;;;;;;16.38;100.00;99560.53;5069564;28;20597;-73
2021/08/16 05:16:19;;;;;;;3.60;3.30;;;;;;;16.43;100.00;99551.91;5071240;28;20257;-70
2021/08/16 05:18:45;;;;;;;5.03;4.63;;;;;;;16.46;100.00;99551.16;5070996;28;20579;-70
2021/08/16 05:21:10;;;;;;;1.93;1.83;;;;;;;16.46;100.00;99546.44;5070775;28;20175;-70
2021/08/16 05:23:35;;;;;;;4.63;3.13;;;;;;;16.47;100.00;99550.00;5070563;28;20174;-72
2021/08/16 05:26:01;;;;;;;2.33;1.70;;;;;;;16.47;100.00;99555.50;5070731;28;20186;-73
2021/08/16 05:28:28;;;;;;;4.57;4.17;;;;;;;16.48;100.00;99549.63;5070703;28;20177;-74
2021/08/16 05:30:53;;;;;;;6.60;5.03;;;;;;;16.49;100.00;99550.41;5070740;28;20178;-73
2021/08/16 05:33:19;;;;;;;4.07;3.67;;;;;;;16.48;100.00;99549.63;5070436;28;20170;-79
2021/08/16 05:35:44;;;;;;;5.60;4.93;;;;;;;16.48;100.00;99538.59;5067485;28;20209;-73
2021/08/16 05:38:09;;;;;;;5.43;5.07;;;;;;;16.55;100.00;99546.19;5071172;28;20174;-74
2021/08/16 05:40:35;;;;;;;4.00;3.70;;;;;;;16.66;100.00;99547.91;5070960;28;20178;-74
2021/08/16 05:43:00;;;;;;;8.50;5.00;;;;;;;16.71;100.00;99549.56;5070693;28;20174;-74
2021/08/16 05:45:26;;;;;;;3.03;2.83;;;;;;;16.75;100.00;99544.09;5070832;28;20250;-75
2021/08/16 05:47:51;;;;;;;5.33;4.97;;;;;;;16.75;100.00;99549.63;5070882;28;20174;-75
2021/08/16 05:50:16;;;;;;;5.90;4.80;;;;;;;16.75;100.00;99544.09;5070913;28;20281;-73
2021/08/16 05:52:42;;;;;;;5.20;4.73;;;;;;;16.69;100.00;99540.88;5070872;28;20181;-74
2021/08/16 05:55:08;;;;;;;5.10;4.70;;;;;;;16.70;100.00;99544.44;5070872;28;20212;-75
2021/08/16 05:57:34;;;;;;;5.90;4.80;;;;;;;16.73;100.00;99544.47;5070796;28;20183;-75
2021/08/16 05:59:59;;;;;;;6.23;4.63;;;;;;;16.72;100.00;99555.88;5070799;28;20171;-75
2021/08/16 06:02:24;;;;;;;1.80;1.40;;;;;;;16.66;100.00;99545.16;5070643;28;20175;-75
2021/08/16 06:04:50;;;;;;;4.03;3.73;;;;;;;16.65;100.00;99532.53;5070619;28;20780;-75
2021/08/16 06:07:15;;;;;;;2.07;1.97;;;;;;;16.65;100.00;99551.06;5070673;28;20531;-74
2021/08/16 06:09:41;;;;;;;1.97;1.77;;;;;;;16.66;100.00;99545.16;5071006;28;20917;-75
2021/08/16 06:12:06;;;;;;;3.30;2.40;;;;;;;16.72;100.00;99536.56;5069709;28;20174;-75
2021/08/16 06:14:32;;;;;;;2.80;2.60;;;;;;;16.72;100.00;99542.09;5070608;28;20206;-75
2021/08/16 06:16:58;;;;;;;7.80;3.10;;;;;;;16.65;100.00;99532.53;5070550;28;20228;-75
2021/08/16 06:19:23;;;;;;;2.73;2.53;;;;;;;16.68;100.00;99524.72;5070630;28;20206;-75
2021/08/16 06:21:48;;;;;;;6.23;3.83;;;;;;;16.74;100.00;99537.00;5070514;28;20257;-74
2021/08/16 06:24:14;;;;;;;2.93;2.73;;;;;;;16.80;99.22;99530.78;5074267;28;20239;-74
2021/08/16 06:26:40;;;;;;;4.70;4.33;;;;;;;16.85;97.49;99529.66;5074998;28;20170;-73
2021/08/16 06:29:06;;;;;;;3.07;2.83;;;;;;;16.84;95.93;99522.53;5074560;28;20273;-76
2021/08/16 06:31:31;;;;;;;3.63;3.33;;;;;;;16.83;96.64;99519.00;5074506;28;20197;-74
2021/08/16 06:33:57;;;;;;;1.53;1.43;;;;;;;16.90;96.68;99521.03;5074172;28;20605;-74
2021/08/16 06:36:22;;;;;;;3.40;3.20;;;;;;;16.93;96.82;99517.53;5073961;28;20179;-75
2021/08/16 06:38:48;;;;;;;2.87;2.67;;;;;;;16.99;96.14;99527.06;5073919;28;20178;-75
2021/08/16 06:41:16;;;;;;;4.83;2.80;;;;;;;17.00;95.71;99530.63;5072578;28;20622;-74
2021/08/16 06:43:42;;;;;;;3.90;3.60;;;;;;;17.01;95.48;99544.03;5074129;28;20171;-69
2021/08/16 06:46:08;;;;;;;3.73;3.43;;;;;;;17.06;96.22;99537.38;5074332;28;20170;-74
2021/08/16 06:48:33;;;;;;;7.37;3.67;;;;;;;17.14;93.92;99531.56;5074144;28;20205;-75
2021/08/16 06:50:58;;;;;;;2.07;1.97;;;;;;;17.22;93.95;99536.00;5074173;28;20605;-81
2021/08/16 06:53:24;;;;;;;7.93;1.83;;;;;;;17.24;93.47;99547.47;5074126;28;20194;-74
2021/08/16 06:55:50;;;;;;;1.20;1.10;;;;;;;17.22;94.43;99544.28;5072743;28;20738;-76
2021/08/16 06:58:16;;;;;;;4.30;3.90;;;;;;;17.22;94.12;99547.03;5074255;28;20166;-74
2021/08/16 07:00:43;;;;;;;7.50;2.50;;;;;;;17.13;92.99;99570.59;5073940;28;20175;-74
2021/08/16 07:03:10;;;;;;;1.97;1.87;;;;;;;17.18;93.32;99551.72;5073775;28;20182;-75
2021/08/16 07:05:36;;;;;;;3.17;2.83;;;;;;;17.18;94.32;99550.91;5072318;28;20257;-72
2021/08/16 07:08:02;;;;;;;2.83;2.63;;;;;;;17.17;93.61;99549.34;5071725;28;20175;-72
2021/08/16 07:10:27;;;;;;;2.80;2.60;;;;;;;17.13;93.25;99549.31;5073474;28;20696;-73
2021/08/16 07:12:52;;;;;;;4.30;3.90;;;;;;;17.09;93.63;99539.41;5073501;28;20189;-74
2021/08/16 07:15:18;;;;;;;5.00;2.60;;;;;;;17.08;92.96;99563.44;5073605;28;20198;-74
2021/08/16 07:17:43;;;;;;;3.67;2.83;;;;;;;17.02;93.87;99550.34;5072243;28;20448;-74
2021/08/16 07:20:09;;;;;;;5.40;2.67;;;;;;;17.00;93.45;99530.63;5072370;28;20182;-74
2021/08/16 07:22:35;;;;;;;3.77;2.73;;;;;;;16.99;93.99;99551.91;5073038;28;20179;-74
2021/08/16 07:25:00;;;;;;;3.60;3.20;;;;;;;16.95;93.36;99542.78;5073207;28;20175;-75
2021/08/16 07:27:26;;;;;;;1.57;1.47;;;;;;;16.87;94.06;99558.44;5073666;28;20174;-74
2021/08/16 07:29:51;;;;;;;5.33;4.83;;;;;;;16.85;94.43;99548.97;5073418;28;20179;-75
2021/08/16 07:32:17;;;;;;;4.67;4.10;;;;;;;16.85;94.07;99560.00;5073656;28;20258;-73
2021/08/16 07:34:42;;;;;;;4.53;3.23;;;;;;;16.85;93.65;99566.31;5072648;28;20248;-73
2021/08/16 07:37:09;;;;;;;4.37;3.47;;;;;;;16.85;94.03;99562.75;5073315;28;20186;-75
2021/08/16 07:39:35;;;;;;;3.43;3.07;;;;;;;16.90;94.20;99556.91;5073246;28;20171;-73
2021/08/16 07:42:00;;;;;;;3.80;2.30;;;;;;;16.97;93.79;99545.16;5073182;28;20174;-75
2021/08/16 07:44:26;;;;;;;7.60;2.97;;;;;;;16.94;93.12;99546.72;5071910;28;20194;-74
2021/08/16 07:46:51;;;;;;;3.47;3.17;;;;;;;16.99;93.15;99546.38;5071975;28;20178;-74
2021/08/16 07:49:16;;;;;;;3.53;3.17;;;;;;;17.06;93.23;99546.44;5073136;28;20171;-76
2021/08/16 07:51:42;;;;;;;1.33;1.27;;;;;;;17.08;92.88;99540.56;5073010;28;20179;-75
2021/08/16 07:54:08;;;;;;;2.47;2.30;;;;;;;17.16;92.48;99534.75;5072886;28;20254;-75
2021/08/16 07:56:33;;;;;;;7.93;3.37;;;;;;;17.42;93.65;99555.91;5072972;28;20186;-74
2021/08/16 07:58:58;;;;;;;3.70;2.93;;;;;;;17.60;89.93;99552.53;5072670;28;20175;-75
2021/08/16 08:01:24;;;;;;;4.47;2.93;;;;;;;17.62;90.29;99562.03;5072601;28;20190;-74
2021/08/16 08:03:49;;;;;;;3.47;3.17;;;;;;;17.70;90.12;99566.47;5072966;28;20187;-74
2021/08/16 08:06:15;;;;;;;6.70;3.33;;;;;;;17.69;89.92;99556.63;5072547;28;20206;-74
2021/08/16 08:08:41;;;;;;;7.70;1.93;;;;;;;17.66;89.37;99567.59;5072713;28;20178;-72
2021/08/16 08:11:06;;;;;;;2.90;2.67;;;;;;;17.77;91.24;99574.81;5072703;28;20179;-71
2021/08/16 08:13:32;;;;;;;9.77;1.23;;;;;;;17.77;88.99;99574.81;5072324;28;20256;-70
2021/08/16 08:15:57;;;;;;;2.67;2.47;;;;;;;17.63;89.33;99560.06;5072515;28;20191;-72
2021/08/16 08:18:22;;;;;;;2.73;2.33;;;;;;;17.61;90.52;99574.25;5072275;28;20189;-73
2021/08/16 08:20:48;;;;;;;1.93;1.70;;;;;;;17.75;89.18;99570.84;5072474;28;20185;-73
2021/08/16 08:23:13;;;;;;;1.57;1.43;;;;;;;17.68;88.97;99579.88;5071800;28;20678;-73
2021/08/16 08:25:40;;;;;;;3.17;2.87;;;;;;;17.65;89.72;99580.63;5071926;28;20177;-71
2021/08/16 08:28:11;;;;;;;1.60;1.50;;;;;;;17.71;89.66;99579.13;5070578;28;20175;-73
2021/08/16 08:30:40;;;;;;;2.80;2.03;;;;;;;17.84;89.23;99582.41;5071873;28;20604;-73
2021/08/16 08:33:05;;;;;;;3.93;2.53;;;;;;;18.05;88.85;99590.84;5071532;28;20178;-73
2021/08/16 08:35:30;;;;;;;1.13;1.03;;;;;;;18.02;87.15;99591.63;5071611;28;20761;-73
2021/08/16 08:37:56;;;;;;;3.87;3.50;;;;;;;17.87;86.87;99594.66;5070092;28;20249;-73
2021/08/16 08:40:21;;;;;;;1.53;1.43;;;;;;;17.65;87.72;99604.66;5069058;28;20638;-75
2021/08/16 08:42:52;;;;;;;4.10;3.07;;;;;;;17.70;88.87;99598.84;5071879;28;20209;-75
2021/08/16 08:45:18;;;;;;;2.27;2.10;;;;;;;17.88;88.34;99601.78;5071276;28;20231;-74
2021/08/16 08:47:45;;;;;;;4.80;3.83;;;;;;;18.04;87.85;99610.59;5070555;28;20262;-73
2021/08/16 08:50:14;;;;;;;6.37;3.10;;;;;;;18.28;86.24;99598.94;5071212;28;20170;-74
2021/08/16 08:52:39;;;;;;;2.60;2.07;;;;;;;18.29;85.51;99611.59;5071116;28;20162;-75
2021/08/16 08:55:05;;;;;;;3.83;1.77;;;;;;;18.08;85.87;99594.81;5071400;28;20208;-75
2021/08/16 08:57:31;;;;;;;5.83;2.27;;;;;;;17.95;86.41;99613.69;5066897;28;20706;-74
2021/08/16 08:59:57;;;;;;;1.70;1.57;;;;;;;17.93;86.82;99606.94;5071005;28;20182;-74
2021/08/16 09:02:22;;;;;;;2.67;2.47;;;;;;;18.02;87.45;99608.22;5071535;28;20280;-73
2021/08/16 09:04:50;;;;;;;2.67;2.43;;;;;;;18.21;86.51;99606.38;5071487;28;20186;-73
2021/08/16 09:07:16;;;;;;;2.10;1.40;;;;;;;18.13;84.64;99613.84;5071179;28;20166;-73
2021/08/16 09:09:53;;;;;;;1.70;1.53;;;;;;;18.07;86.11;99604.28;5071038;28;20198;-73
2021/08/16 09:12:29;;;;;;;2.80;1.73;;;;;;;18.19;85.13;99620.59;5070808;28;20181;-73
2021/08/16 09:14:55;;;;;;;1.50;1.40;;;;;;;18.21;83.81;99606.38;5070537;28;20669;-73
2021/08/16 09:17:33;;;;;;;3.60;1.57;;;;;;;18.31;84.02;99603.72;5066467;28;20179;-73
2021/08/16 09:20:23;;;;;;;6.03;2.50;;;;;;;18.43;83.67;99600.63;5071025;28;20174;-74
2021/08/16 09:22:59;;;;;;;3.40;2.93;;;;;;;18.56;83.40;99605.84;5070999;28;20265;-74
2021/08/16 09:25:33;;;;;;;2.03;1.37;;;;;;;18.67;83.07;99604.00;5071204;28;20171;-73
2021/08/16 09:27:59;;;;;;;3.33;3.13;;;;;;;18.75;81.40;99602.03;5071246;28;20186;-73
2021/08/16 09:30:42;;;;;;;2.23;2.13;;;;;;;18.70;81.00;99605.97;5067797;28;21045;-73
2021/08/16 09:33:12;;;;;;;2.83;2.53;;;;;;;18.62;82.21;99598.78;5067164;28;20198;-73
2021/08/16 09:35:49;;;;;;;1.80;1.70;;;;;;;18.44;82.19;99593.94;5070958;28;20285;-73
2021/08/16 09:38:14;;;;;;;3.03;2.53;;;;;;;18.52;81.77;99588.44;5070915;28;20191;-73
2021/08/16 09:40:39;;;;;;;2.47;2.27;;;;;;;18.69;82.19;99596.09;5070873;28;20201;-73
2021/08/16 09:43:05;;;;;;;6.57;3.47;;;;;;;18.87;80.47;99605.28;5070779;28;20181;-73
2021/08/16 09:45:33;;;;;;;2.07;1.90;;;;;;;18.97;78.87;99601.78;5070983;28;20261;-73
2021/08/16 09:48:00;;;;;;;1.63;1.53;;;;;;;18.86;78.72;99603.69;5070675;28;20224;-73
2021/08/16 09:50:43;;;;;;;4.73;2.57;;;;;;;18.87;79.40;99608.03;5070290;28;20182;-73
2021/08/16 09:53:13;;;;;;;2.50;2.30;;;;;;;18.85;78.69;99593.81;5070716;28;20185;-73
2021/08/16 09:55:41;;;;;;;1.57;1.13;;;;;;;18.91;79.35;99592.22;5070723;28;20209;-74
2021/08/16 09:58:15;;;;;;;1.73;1.60;;;;;;;18.91;79.11;99602.50;5070659;28;20170;-73
2021/08/16 10:00:42;;;;;;;1.90;1.80;;;;;;;18.80;79.58;99599.69;5070475;28;20646;-73
2021/08/16 10:03:11;;;;;;;4.30;2.60;;;;;;;18.74;79.82;99592.94;5070384;28;20185;-73
2021/08/16 10:05:38;;;;;;;2.10;2.00;;;;;;;18.77;79.83;99585.84;5070689;28;20582;-73
2021/08/16 10:08:08;;;;;;;7.83;1.97;;;;;;;18.85;78.83;99587.47;5070602;28;20193;-73
2021/08/16 10:10:36;;;;;;;2.33;2.13;;;;;;;18.84;79.10;99580.34;5070605;28;20201;-73
2021/08/16 10:13:03;;;;;;;1.67;1.50;;;;;;;18.80;79.23;99585.06;5070365;28;20186;-73
2021/08/16 10:15:32;;;;;;;1.33;1.07;;;;;;;18.86;79.09;99573.25;5070343;28;20198;-73
2021/08/16 10:17:58;;;;;;;1.73;0.70;;;;;;;18.91;79.42;99581.16;5070560;28;20170;-73
2021/08/16 10:20:28;;;;;;;1.37;1.27;;;;;;;18.99;78.80;99580.03;5070373;28;20254;-73
2021/08/16 10:22:53;;;;;;;4.03;2.53;;;;;;;18.96;78.65;99574.47;5070097;28;20179;-73
2021/08/16 10:25:19;;;;;;;1.30;1.20;;;;;;;18.95;77.67;99576.47;5070209;28;20167;-73
2021/08/16 10:27:45;;;;;;;1.30;0.90;;;;;;;18.94;78.66;99566.53;5069864;28;20198;-73
2021/08/16 10:30:14;;;;;;;1.07;0.70;;;;;;;19.00;78.95;99562.22;5070215;28;20178;-72
2021/08/16 10:32:40;;;;;;;0.90;0.90;;;;;;;18.95;78.06;99567.34;5070437;28;20253;-73
2021/08/16 10:35:06;;;;;;;1.83;1.73;;;;;;;18.99;78.30;99565.41;5072189;28;20304;-73
2021/08/16 10:37:40;;;;;;;2.13;1.93;;;;;;;18.94;78.08;99562.97;5070674;28;20178;-73
2021/08/16 10:40:38;;;;;;;1.50;1.40;;;;;;;18.82;77.55;99572.44;5070296;28;20637;-73
2021/08/16 10:43:08;;;;;;;3.07;1.70;;;;;;;18.70;78.13;99572.78;5069649;28;20654;-73
2021/08/16 10:45:42;;;;;;;1.10;1.10;;;;;;;18.69;79.82;99560.13;5070531;28;20263;-73
2021/08/16 10:48:08;;;;;;;1.43;1.37;;;;;;;18.62;79.21;99563.59;5068231;28;20201;-73
2021/08/16 10:50:35;;;;;;;2.40;2.13;;;;;;;18.44;80.91;99540.56;5068455;28;20257;-73
2021/08/16 10:53:06;;;;;;;2.10;2.00;;;;;;;18.33;81.83;99590.28;5069391;28;20233;-72
2021/08/16 10:55:42;;;;;;;2.47;1.10;;;;;;;18.28;81.74;99585.13;5069859;28;20260;-72
2021/08/16 10:58:12;;;;;;;3.87;1.73;;;;;;;18.28;82.79;99585.13;5069768;28;20209;-72
2021/08/16 11:00:39;;;;;;;1.63;1.53;;;;;;;18.29;83.07;99592.25;5069648;28;20175;-73
2021/08/16 11:03:05;;;;;;;1.57;1.47;;;;;;;18.30;83.30;99566.16;5069323;28;20210;-72
2021/08/16 11:05:34;;;;;;;3.90;2.37;;;;;;;18.46;83.15;99545.72;5069672;28;20179;-72
2021/08/16 11:08:03;;;;;;;1.57;1.47;;;;;;;18.56;82.68;99559.63;5069271;28;20258;-73
2021/08/16 11:10:49;;;;;;;3.40;2.60;;;;;;;18.54;82.41;99550.91;5070558;28;20178;-73
2021/08/16 11:13:21;;;;;;;1.17;1.07;;;;;;;18.52;82.49;99546.97;5073881;28;20259;-73
2021/08/16 11:15:49;;;;;;;2.93;2.73;;;;;;;18.51;83.72;99550.88;5071909;28;20209;-73
2021/08/16 11:18:15;;;;;;;1.90;1.80;;;;;;;18.58;84.77;99553.69;5073345;28;20211;-73
2021/08/16 11:20:42;;;;;;;2.03;1.23;;;;;;;18.52;85.21;99563.56;5069178;28;20186;-73
2021/08/16 11:23:08;;;;;;;1.67;1.57;;;;;;;18.27;87.86;99555.88;5073365;28;20204;-72
2021/08/16 11:25:33;;;;;;;1.07;1.07;;;;;;;18.19;88.77;99545.94;5073301;28;20905;-73